Time;durP1;ratioP1;P1;durP2;ratioP2;P2;SDS_P1;SDS_P2;PMS_P1;PMS_P2;Temp;Humidity;BMP_temperature;BMP_pressure;BME280_temperature;BME280_humidity;BME280_pressure;Samples;Min_cycle;Max_cycle;Signal;HPM_P1;HPM_P2
2023/07/17 00:00:28;;;;;;;1.70;0.90;;;;;;;25.53;46.84;99879.13;5069244;28;20029;-82
2023/07/17 00:02:54;;;;;;;1.02;0.80;;;;;;;25.55;46.94;99874.50;5069507;28;20059;-82
2023/07/17 00:05:20;;;;;;;1.13;0.77;;;;;;;25.83;47.18;99923.75;5069400;28;20483;-82
2023/07/17 00:07:45;;;;;;;1.35;0.80;;;;;;;25.81;47.12;99917.56;5069732;28;20032;-82
2023/07/17 00:10:11;;;;;;;1.98;1.45;;;;;;;25.68;47.11;99902.28;5069659;28;20032;-82
2023/07/17 00:12:38;;;;;;;1.00;0.65;;;;;;;25.81;47.20;99929.28;5067577;28;20407;-82
2023/07/17 00:15:07;;;;;;;2.25;1.27;;;;;;;25.66;47.51;99911.50;5072858;28;20139;-81
2023/07/17 00:17:33;;;;;;;5.13;1.52;;;;;;;25.70;47.58;99916.56;5073158;28;20486;-81
2023/07/17 00:20:00;;;;;;;1.55;0.90;;;;;;;25.66;47.94;99925.00;5055071;28;20056;-81
2023/07/17 00:22:25;;;;;;;2.55;1.40;;;;;;;25.41;48.27;99889.03;5073374;28;20037;-81
2023/07/17 00:24:52;;;;;;;1.33;1.10;;;;;;;25.65;48.54;99939.47;5073382;28;20464;-82
2023/07/17 00:27:18;;;;;;;7.25;1.60;;;;;;;25.29;49.08;99882.69;5072766;28;20115;-82
2023/07/17 00:29:44;;;;;;;1.30;1.20;;;;;;;25.51;49.65;99914.34;5072435;28;20217;-81
2023/07/17 00:32:13;;;;;;;2.30;1.05;;;;;;;25.47;49.69;99915.56;5073205;28;20035;-81
2023/07/17 00:34:40;;;;;;;2.28;1.40;;;;;;;25.44;49.30;99905.00;5072880;28;20054;-81
2023/07/17 00:37:06;;;;;;;1.45;0.73;;;;;;;25.39;49.77;99912.56;5073093;28;20032;-81
2023/07/17 00:39:32;;;;;;;1.63;1.15;;;;;;;25.48;49.43;99932.63;5073110;28;20039;-81
2023/07/17 00:41:57;;;;;;;1.77;1.00;;;;;;;25.35;49.04;99944.31;5071385;28;20028;-81
2023/07/17 00:44:23;;;;;;;4.63;1.30;;;;;;;25.05;49.64;99923.06;5073599;28;20067;-81
2023/07/17 00:46:49;;;;;;;2.22;1.38;;;;;;;25.10;49.74;99918.22;5073721;28;20029;-81
2023/07/17 00:49:17;;;;;;;0.75;0.75;;;;;;;24.97;49.73;99923.63;5072889;28;20360;-82
2023/07/17 00:51:42;;;;;;;2.47;1.38;;;;;;;24.97;49.83;99947.06;5073038;28;20097;-82
2023/07/17 00:54:10;;;;;;;2.35;1.30;;;;;;;25.01;50.24;99959.38;5072544;28;20036;-81
2023/07/17 00:56:37;;;;;;;4.05;1.95;;;;;;;24.89;50.24;99950.28;5072578;28;20032;-81
2023/07/17 00:59:04;;;;;;;1.35;0.93;;;;;;;24.62;51.54;99940.47;5071592;28;20024;-81
2023/07/17 01:01:31;;;;;;;1.48;1.02;;;;;;;24.66;51.83;99951.91;5072673;28;20032;-81
2023/07/17 01:04:01;;;;;;;1.42;0.93;;;;;;;24.42;51.06;99917.56;5050602;28;20376;-81
2023/07/17 01:06:27;;;;;;;2.63;1.83;;;;;;;24.17;49.80;99875.25;5052813;28;20025;-81
2023/07/17 01:08:52;;;;;;;1.30;1.00;;;;;;;24.44;47.60;99923.72;5067806;28;20505;-81
2023/07/17 01:11:18;;;;;;;1.58;1.10;;;;;;;24.43;47.84;99923.81;5072495;28;20479;-82
2023/07/17 01:13:46;;;;;;;2.35;1.25;;;;;;;24.58;47.61;99943.50;5072615;28;20037;-81
2023/07/17 01:16:13;;;;;;;2.63;1.00;;;;;;;24.57;47.55;99926.44;5071858;28;20049;-81
2023/07/17 01:18:38;;;;;;;1.63;1.20;;;;;;;24.71;47.38;99948.88;5072681;28;20064;-80
2023/07/17 01:21:07;;;;;;;1.63;0.95;;;;;;;24.76;47.17;99947.59;5072494;28;20119;-82
2023/07/17 01:23:32;;;;;;;1.23;1.08;;;;;;;24.56;46.96;99921.13;5072379;28;20027;-82
2023/07/17 01:25:58;;;;;;;1.92;1.52;;;;;;;24.65;47.12;99944.78;5072190;28;20028;-81
2023/07/17 01:28:24;;;;;;;2.60;1.08;;;;;;;24.58;47.24;99914.69;5072667;28;20039;-82
2023/07/17 01:30:49;;;;;;;3.50;1.27;;;;;;;24.61;47.50;99938.75;5071816;28;20033;-82
2023/07/17 01:33:15;;;;;;;2.65;1.10;;;;;;;24.55;47.57;99932.91;5071394;28;20486;-81
2023/07/17 01:35:40;;;;;;;1.42;0.85;;;;;;;24.57;47.71;99948.00;5071960;28;20064;-81
2023/07/17 01:38:07;;;;;;;1.35;1.20;;;;;;;24.44;47.27;99922.84;5071754;28;20021;-82
2023/07/17 01:40:33;;;;;;;7.05;2.33;;;;;;;24.67;47.18;99942.84;5072435;28;20108;-81
2023/07/17 01:42:58;;;;;;;2.53;1.55;;;;;;;24.75;46.62;99951.25;5071582;28;20127;-81
2023/07/17 01:45:24;;;;;;;1.52;1.05;;;;;;;24.78;48.03;99951.03;5071583;28;20032;-81
2023/07/17 01:47:49;;;;;;;1.42;1.23;;;;;;;24.65;48.92;99926.78;5071941;28;20406;-81
2023/07/17 01:50:15;;;;;;;2.47;1.27;;;;;;;24.82;49.14;99951.69;5072112;28;20082;-80
2023/07/17 01:52:40;;;;;;;2.35;1.55;;;;;;;24.63;49.08;99926.00;5071473;28;20033;-81
2023/07/17 01:55:06;;;;;;;1.88;1.20;;;;;;;24.59;49.54;99923.63;5072390;28;20479;-80
2023/07/17 01:57:32;;;;;;;5.72;0.77;;;;;;;24.65;49.69;99939.38;5070880;28;20064;-81
2023/07/17 01:59:58;;;;;;;2.63;1.35;;;;;;;24.66;49.90;99950.06;5071748;28;20132;-80
2023/07/17 02:02:24;;;;;;;2.33;1.25;;;;;;;24.67;50.21;99945.56;5071893;28;20033;-80
2023/07/17 02:04:50;;;;;;;3.70;1.98;;;;;;;24.61;50.22;99933.34;5071304;28;20024;-81
2023/07/17 02:07:15;;;;;;;10.07;1.60;;;;;;;24.62;50.74;99950.38;5071465;28;20077;-80
2023/07/17 02:09:40;;;;;;;1.05;0.95;;;;;;;24.70;51.16;99956.13;5071091;28;20131;-80
2023/07/17 02:12:06;;;;;;;0.75;0.75;;;;;;;24.49;50.29;99932.31;5071637;28;20036;-80
2023/07/17 02:14:32;;;;;;;2.42;1.15;;;;;;;24.52;51.41;99944.75;5070394;28;20059;-80
2023/07/17 02:16:58;;;;;;;1.17;0.85;;;;;;;24.36;50.75;99926.06;5071408;28;20103;-80
2023/07/17 02:19:24;;;;;;;1.60;1.10;;;;;;;24.57;50.35;99960.59;5071394;28;20170;-80
2023/07/17 02:21:50;;;;;;;3.80;1.73;;;;;;;24.27;51.03;99949.13;5071000;28;20020;-81
2023/07/17 02:24:15;;;;;;;3.08;1.58;;;;;;;24.26;51.93;99952.78;5071548;28;20032;-80
2023/07/17 02:26:40;;;;;;;3.53;1.73;;;;;;;24.34;51.95;99944.16;5071044;28;20043;-80
2023/07/17 02:29:06;;;;;;;2.95;1.90;;;;;;;24.29;52.18;99951.72;5071092;28;20025;-80
2023/07/17 02:31:31;;;;;;;2.00;1.17;;;;;;;23.98;52.86;99929.53;5070692;28;20035;-80
2023/07/17 02:33:57;;;;;;;2.05;1.48;;;;;;;24.00;53.28;99938.38;5070934;28;20035;-81
2023/07/17 02:36:22;;;;;;;2.67;1.73;;;;;;;24.08;53.60;99954.91;5069738;28;20036;-81
2023/07/17 02:38:48;;;;;;;1.35;1.10;;;;;;;24.08;54.14;99963.00;5070886;28;20101;-80
2023/07/17 02:41:14;;;;;;;2.55;1.25;;;;;;;23.93;54.12;99937.94;5070930;28;20102;-81
2023/07/17 02:43:40;;;;;;;1.20;1.10;;;;;;;24.01;54.11;99963.50;5070926;28;20024;-81
2023/07/17 02:46:06;;;;;;;2.05;1.45;;;;;;;23.81;53.99;99936.03;5070480;28;20055;-80
2023/07/17 02:48:31;;;;;;;2.10;1.52;;;;;;;23.95;54.22;99946.75;5070420;28;20032;-80
2023/07/17 02:50:56;;;;;;;1.73;1.42;;;;;;;23.75;54.66;99933.72;5070694;28;20054;-81
2023/07/17 02:53:22;;;;;;;3.90;2.20;;;;;;;23.88;54.64;99966.13;5070092;28;20064;-80
2023/07/17 02:55:47;;;;;;;1.42;0.90;;;;;;;23.70;54.72;99947.50;5069545;28;20036;-81
2023/07/17 02:58:19;;;;;;;1.48;1.17;;;;;;;23.58;55.72;99956.38;5070344;28;20126;-80
2023/07/17 03:00:46;;;;;;;3.85;1.67;;;;;;;23.49;56.12;99941.69;5050415;28;20068;-80
2023/07/17 03:03:11;;;;;;;3.33;1.40;;;;;;;23.65;55.98;99956.84;5063094;28;20113;-80
2023/07/17 03:05:37;;;;;;;3.45;1.23;;;;;;;23.44;55.46;99927.66;5069702;28;20483;-80
2023/07/17 03:08:03;;;;;;;3.22;1.58;;;;;;;23.33;56.00;99931.06;5070383;28;20020;-80
2023/07/17 03:10:29;;;;;;;2.10;1.35;;;;;;;23.53;55.96;99956.69;5070078;28;20021;-80
2023/07/17 03:12:55;;;;;;;2.28;1.42;;;;;;;23.26;56.61;99936.94;5069196;28;20028;-80
2023/07/17 03:15:20;;;;;;;2.05;1.48;;;;;;;23.43;56.52;99971.69;5070105;28;20538;-80
2023/07/17 03:17:46;;;;;;;12.57;1.45;;;;;;;23.28;57.22;99943.94;5070036;28;20032;-79
2023/07/17 03:20:13;;;;;;;1.08;0.93;;;;;;;23.36;56.97;99955.06;5069481;28;20028;-80
2023/07/17 03:22:39;;;;;;;7.15;1.75;;;;;;;23.48;56.41;99960.63;5069898;28;20178;-80
2023/07/17 03:25:05;;;;;;;4.78;2.33;;;;;;;23.47;56.71;99973.22;5051466;28;20119;-80
2023/07/17 03:27:31;;;;;;;1.77;1.63;;;;;;;23.42;56.85;99956.53;5069948;28;20120;-80
2023/07/17 03:29:56;;;;;;;2.08;1.88;;;;;;;23.51;57.34;99968.50;5069459;28;20054;-81
2023/07/17 03:32:22;;;;;;;1.13;1.02;;;;;;;23.51;57.69;99972.06;5069487;28;20032;-81
2023/07/17 03:34:47;;;;;;;2.42;1.52;;;;;;;23.51;57.77;99957.72;5068698;28;20410;-81
2023/07/17 03:37:13;;;;;;;6.80;2.60;;;;;;;23.52;57.13;99944.16;5069525;28;20082;-81
2023/07/17 03:39:38;;;;;;;3.45;1.10;;;;;;;23.67;57.48;99982.72;5069699;28;20039;-81
2023/07/17 03:42:10;;;;;;;0.80;0.75;;;;;;;23.56;57.28;99964.56;5069344;28;20115;-81
2023/07/17 03:44:39;;;;;;;1.65;1.55;;;;;;;23.78;56.99;99985.56;5069259;28;20029;-81
2023/07/17 03:47:05;;;;;;;2.03;1.20;;;;;;;23.82;57.34;99982.66;5069323;28;20051;-81
2023/07/17 03:49:31;;;;;;;3.25;2.47;;;;;;;23.91;57.71;99995.56;5068410;28;20025;-82
2023/07/17 03:51:58;;;;;;;2.45;1.23;;;;;;;23.87;57.75;99975.19;5069411;28;20029;-81
2023/07/17 03:54:24;;;;;;;4.00;2.25;;;;;;;23.94;57.45;99976.50;5069981;28;20482;-82
2023/07/17 03:56:49;;;;;;;3.30;1.40;;;;;;;24.04;57.26;99976.78;5069933;28;20037;-81
2023/07/17 03:59:15;;;;;;;3.70;1.58;;;;;;;24.01;57.06;99960.81;5069379;28;20043;-81
2023/07/17 04:01:40;;;;;;;2.50;1.80;;;;;;;24.17;56.68;99985.75;5067956;28;20071;-82
2023/07/17 04:04:06;;;;;;;3.83;1.40;;;;;;;24.27;56.49;99968.00;5068946;28;20553;-82
2023/07/17 04:06:32;;;;;;;3.13;1.88;;;;;;;24.23;56.70;99963.75;5067877;28;20086;-82
2023/07/17 04:08:57;;;;;;;2.65;2.20;;;;;;;24.41;55.55;99967.06;5062554;28;20052;-82
2023/07/17 04:11:24;;;;;;;3.90;2.00;;;;;;;24.57;55.26;99993.84;5066593;28;20490;-80
2023/07/17 04:13:50;;;;;;;5.05;2.08;;;;;;;24.49;54.41;99980.84;5064736;28;20498;-81
2023/07/17 04:16:18;;;;;;;3.08;1.80;;;;;;;24.57;53.48;99987.56;5068492;28;20102;-81
2023/07/17 04:18:43;;;;;;;6.63;2.35;;;;;;;24.66;53.33;99995.06;5067085;28;20035;-81
2023/07/17 04:21:09;;;;;;;3.85;2.15;;;;;;;24.88;52.43;100001.66;5067647;28;20021;-81
2023/07/17 04:23:34;;;;;;;7.05;3.33;;;;;;;24.82;52.77;99993.03;5068723;28;20032;-81
2023/07/17 04:26:00;;;;;;;13.48;2.92;;;;;;;25.16;52.31;100012.25;5068249;28;20077;-80
2023/07/17 04:28:25;;;;;;;15.68;1.85;;;;;;;25.11;51.68;99998.19;5065326;28;20513;-80
2023/07/17 04:30:51;;;;;;;5.45;2.22;;;;;;;25.26;50.75;100006.19;5064278;28;20028;-81
2023/07/17 04:33:16;;;;;;;8.15;3.35;;;;;;;25.19;50.65;99976.94;5065457;28;20028;-81
2023/07/17 04:35:41;;;;;;;3.70;2.03;;;;;;;25.58;49.70;100005.72;5062743;28;20040;-80
2023/07/17 04:38:07;;;;;;;2.90;1.88;;;;;;;25.78;48.28;100012.38;5059169;28;20037;-79
2023/07/17 04:40:32;;;;;;;1.90;1.33;;;;;;;25.83;47.66;100004.81;5068286;28;20173;-80
2023/07/17 04:43:00;;;;;;;2.15;1.55;;;;;;;25.88;49.32;100022.38;5069012;28;20103;-82
2023/07/17 04:45:26;;;;;;;4.22;1.38;;;;;;;25.87;49.37;100020.69;5065264;28;21796;-82
2023/07/17 04:47:52;;;;;;;2.35;1.48;;;;;;;25.99;49.45;100015.34;5060047;28;20123;-80
2023/07/17 04:50:18;;;;;;;3.90;1.90;;;;;;;26.02;49.28;100012.44;5062602;28;20025;-82
2023/07/17 04:52:43;;;;;;;9.50;1.92;;;;;;;26.35;49.01;100009.00;5063784;28;20134;-82
2023/07/17 04:55:09;;;;;;;13.10;2.15;;;;;;;26.40;48.21;100003.25;5063495;28;20932;-81
2023/07/17 04:57:34;;;;;;;6.63;2.10;;;;;;;26.59;48.35;100017.09;5059304;28;20062;-82
2023/07/17 05:00:00;;;;;;;3.25;1.95;;;;;;;26.46;47.37;99991.97;5058133;28;20460;-85
2023/07/17 05:02:25;;;;;;;6.82;2.90;;;;;;;26.55;48.25;99993.94;5062534;28;20055;-84
2023/07/17 05:04:51;;;;;;;3.58;1.88;;;;;;;26.52;49.09;100014.97;5066758;28;20051;-83
2023/07/17 05:07:16;;;;;;;12.80;2.20;;;;;;;26.79;47.97;100012.03;5061942;28;20043;-84
2023/07/17 05:09:42;;;;;;;7.20;3.03;;;;;;;26.97;47.96;100013.28;5068965;28;20024;-83
2023/07/17 05:12:08;;;;;;;5.65;3.08;;;;;;;26.58;48.67;99996.41;5065594;28;20521;-86
2023/07/17 05:14:33;;;;;;;8.23;3.13;;;;;;;26.80;47.15;99986.66;5066738;28;20048;-84
2023/07/17 05:16:59;;;;;;;12.75;2.55;;;;;;;27.19;47.92;100018.84;5054825;28;20127;-85
2023/07/17 05:19:24;;;;;;;11.05;3.00;;;;;;;27.32;46.38;99987.13;5062181;28;20118;-86
2023/07/17 05:21:50;;;;;;;3.60;2.42;;;;;;;27.50;44.64;100018.13;5065803;28;20036;-85
2023/07/17 05:24:15;;;;;;;5.40;2.60;;;;;;;27.54;45.67;100032.28;5063959;28;20567;-86
2023/07/17 05:26:41;;;;;;;5.80;2.15;;;;;;;27.57;44.74;100021.19;5061719;28;20426;-86
2023/07/17 05:29:06;;;;;;;2.28;1.45;;;;;;;27.23;44.30;100009.50;5059558;28;20123;-86
2023/07/17 05:31:32;;;;;;;14.32;1.95;;;;;;;27.63;44.84;100018.00;5063080;28;20033;-85
2023/07/17 05:33:57;;;;;;;2.30;2.10;;;;;;;27.65;43.99;100013.34;5061987;28;20016;-86
2023/07/17 05:36:23;;;;;;;3.08;1.73;;;;;;;27.52;44.41;100005.31;5060083;28;20033;-86
2023/07/17 05:38:48;;;;;;;2.45;1.40;;;;;;;27.46;43.56;100035.59;5063712;28;20020;-86
2023/07/17 05:41:14;;;;;;;1.85;1.20;;;;;;;27.47;44.48;100017.53;5063261;28;20019;-86
2023/07/17 05:43:39;;;;;;;2.22;1.67;;;;;;;27.83;44.94;100008.22;5067614;28;20035;-86
2023/07/17 05:46:05;;;;;;;2.65;1.70;;;;;;;27.78;45.81;100007.75;5059579;28;20040;-86
2023/07/17 05:48:30;;;;;;;2.55;1.55;;;;;;;28.21;44.46;99995.22;5060507;28;20025;-87
2023/07/17 05:50:56;;;;;;;3.53;1.48;;;;;;;28.81;42.72;100005.53;5045274;28;20029;-87
2023/07/17 05:53:21;;;;;;;3.63;1.75;;;;;;;28.76;42.10;99989.66;5063954;28;20467;-86
2023/07/17 05:55:47;;;;;;;3.25;1.88;;;;;;;28.64;42.39;100005.16;5062607;28;20027;-85
2023/07/17 05:58:13;;;;;;;2.25;1.75;;;;;;;28.64;42.10;100009.72;5063043;28;20120;-86
2023/07/17 06:00:38;;;;;;;5.47;2.58;;;;;;;28.62;42.29;100001.72;5061795;28;20059;-86
2023/07/17 06:03:05;;;;;;;4.20;1.75;;;;;;;28.91;42.73;100017.34;5062475;28;20038;-86
2023/07/17 06:05:35;;;;;;;1.45;1.33;;;;;;;29.18;41.76;99996.91;5061002;28;20561;-86
2023/07/17 06:08:00;;;;;;;3.28;1.55;;;;;;;29.37;45.50;99988.03;5063216;28;20048;-87
2023/07/17 06:10:26;;;;;;;3.70;1.63;;;;;;;29.55;41.76;99977.34;5065111;28;20099;-85
2023/07/17 06:12:52;;;;;;;8.70;2.88;;;;;;;29.47;39.87;99978.03;5064389;28;20539;-88
2023/07/17 06:15:17;;;;;;;5.78;2.97;;;;;;;29.38;39.75;99987.00;5062275;28;20040;-85
2023/07/17 06:17:43;;;;;;;2.22;1.60;;;;;;;29.86;41.38;99999.94;5058494;28;20040;-86
2023/07/17 06:20:09;;;;;;;2.60;1.25;;;;;;;29.57;40.31;99967.22;5069018;28;20024;-85
2023/07/17 06:22:35;;;;;;;6.63;1.25;;;;;;;29.77;39.78;100003.44;5065265;28;20094;-83
2023/07/17 06:25:01;;;;;;;2.90;1.88;;;;;;;29.67;40.87;99994.41;5062916;28;20471;-83
2023/07/17 06:27:27;;;;;;;1.77;1.35;;;;;;;29.78;40.39;99975.25;5063024;28;20475;-83
2023/07/17 06:29:52;;;;;;;2.72;1.63;;;;;;;30.43;40.17;99981.09;5067148;28;20025;-84
2023/07/17 06:32:18;;;;;;;1.42;1.27;;;;;;;30.99;37.64;99986.75;5064785;28;20023;-83
2023/07/17 06:34:44;;;;;;;3.05;1.02;;;;;;;30.85;39.14;99969.84;5064371;28;20470;-84
2023/07/17 06:37:10;;;;;;;5.57;2.40;;;;;;;30.87;39.87;99980.59;5069911;28;20020;-83
2023/07/17 06:39:35;;;;;;;3.83;2.10;;;;;;;30.73;39.46;99971.00;5068003;28;20471;-84
2023/07/17 06:42:01;;;;;;;2.42;1.50;;;;;;;31.12;38.65;99978.25;5047686;28;20587;-84
2023/07/17 06:44:26;;;;;;;3.50;1.52;;;;;;;31.51;37.71;99964.44;5060866;28;20466;-83
2023/07/17 06:46:52;;;;;;;3.72;2.38;;;;;;;31.61;38.03;99989.81;5056486;28;20059;-85
2023/07/17 06:49:17;;;;;;;2.60;1.65;;;;;;;32.02;37.19;99973.03;5063104;28;20021;-84
2023/07/17 06:51:43;;;;;;;2.35;1.70;;;;;;;32.32;35.87;99980.00;5060187;28;20413;-84
2023/07/17 06:54:08;;;;;;;2.95;1.65;;;;;;;32.58;36.25;99966.41;5061664;28;20031;-84
2023/07/17 06:56:34;;;;;;;7.80;1.75;;;;;;;32.57;35.62;99978.34;5061975;28;20111;-83
2023/07/17 06:59:00;;;;;;;5.55;1.52;;;;;;;32.49;35.26;99964.63;5062138;28;20687;-83
2023/07/17 07:01:26;;;;;;;3.00;1.90;;;;;;;32.45;35.35;99974.13;5062021;28;20017;-83
2023/07/17 07:03:51;;;;;;;3.08;1.95;;;;;;;32.34;34.95;99961.59;5060549;28;20013;-83
2023/07/17 07:06:18;;;;;;;2.17;1.10;;;;;;;32.22;32.68;99955.50;5057613;28;20526;-84
2023/07/17 07:08:43;;;;;;;2.95;1.20;;;;;;;32.28;32.34;99968.53;5064152;28;20051;-84
2023/07/17 07:11:10;;;;;;;3.58;1.65;;;;;;;31.95;33.43;99953.72;5058730;28;20033;-83
2023/07/17 07:13:35;;;;;;;3.35;1.77;;;;;;;32.28;32.97;99957.63;5063498;28;20031;-85
2023/07/17 07:16:01;;;;;;;1.77;1.10;;;;;;;32.90;32.69;99961.34;5058735;28;20052;-85
2023/07/17 07:18:26;;;;;;;3.72;1.15;;;;;;;33.48;32.03;99932.47;5059172;28;20047;-85
2023/07/17 07:20:52;;;;;;;2.40;1.15;;;;;;;33.45;30.87;99949.19;5063817;28;20115;-84
2023/07/17 07:23:18;;;;;;;3.95;1.65;;;;;;;33.29;30.37;99947.22;5064919;28;20028;-85
2023/07/17 07:25:43;;;;;;;3.10;1.92;;;;;;;33.62;31.19;99907.19;5057897;28;21033;-85
2023/07/17 07:28:12;;;;;;;2.13;1.50;;;;;;;33.72;31.62;99920.75;5063026;28;20035;-84
2023/07/17 07:30:38;;;;;;;3.38;1.52;;;;;;;33.69;30.58;99921.91;5061429;28;20040;-84
2023/07/17 07:33:03;;;;;;;1.75;1.20;;;;;;;33.51;30.12;99937.59;5063186;28;20126;-84
2023/07/17 07:35:29;;;;;;;2.15;1.58;;;;;;;33.65;31.59;99909.59;5058336;28;20051;-84
2023/07/17 07:37:54;;;;;;;1.58;1.15;;;;;;;34.32;31.83;99902.34;5063525;28;20120;-83
2023/07/17 07:40:21;;;;;;;5.32;1.88;;;;;;;34.38;28.92;99912.63;5063407;28;20048;-83
2023/07/17 07:42:46;;;;;;;2.03;1.20;;;;;;;34.11;31.54;99932.94;5065260;28;20047;-84
2023/07/17 07:45:13;;;;;;;3.42;1.65;;;;;;;34.88;30.45;99922.50;5059937;28;20436;-85
2023/07/17 07:47:39;;;;;;;2.75;1.45;;;;;;;34.52;30.77;99917.38;5061403;28;20036;-84
2023/07/17 07:50:06;;;;;;;5.57;1.95;;;;;;;34.93;28.03;99911.00;5061520;28;20550;-84
2023/07/17 07:52:31;;;;;;;3.00;1.23;;;;;;;34.83;28.67;99902.13;5064524;28;20046;-84
2023/07/17 07:54:57;;;;;;;2.53;1.60;;;;;;;34.79;27.70;99890.66;5059821;28;20560;-82
2023/07/17 07:57:23;;;;;;;6.03;2.53;;;;;;;34.92;27.56;99915.59;5055639;28;20063;-84
2023/07/17 07:59:49;;;;;;;2.38;1.25;;;;;;;35.22;28.14;99914.97;5061998;28;20108;-83
2023/07/17 08:02:15;;;;;;;2.78;1.77;;;;;;;35.28;27.24;99923.41;5058594;28;20024;-84
2023/07/17 08:04:41;;;;;;;2.72;1.85;;;;;;;35.44;27.79;99903.25;5058330;28;20043;-83
2023/07/17 08:07:07;;;;;;;2.75;1.27;;;;;;;35.96;27.58;99901.78;5055845;28;20036;-84
2023/07/17 08:09:32;;;;;;;4.60;1.40;;;;;;;35.90;26.64;99896.13;5058118;28;20041;-82
2023/07/17 08:11:58;;;;;;;2.72;1.23;;;;;;;35.91;28.79;99912.41;5058492;28;20770;-82
2023/07/17 08:14:23;;;;;;;2.22;1.50;;;;;;;36.50;27.44;99891.69;5052579;28;20127;-82
2023/07/17 08:16:49;;;;;;;10.68;1.73;;;;;;;36.63;27.83;99891.06;5057282;28;20036;-82
2023/07/17 08:19:16;;;;;;;15.13;2.28;;;;;;;36.41;26.82;99896.44;5058492;28;20036;-81
2023/07/17 08:21:42;;;;;;;2.47;1.50;;;;;;;36.86;27.96;99902.00;5060185;28;20111;-82
2023/07/17 08:24:08;;;;;;;4.47;1.88;;;;;;;36.32;25.88;99890.16;5061702;28;20165;-81
2023/07/17 08:26:33;;;;;;;3.78;2.13;;;;;;;36.17;26.55;99895.56;5056750;28;20024;-82
2023/07/17 08:29:00;;;;;;;7.90;2.38;;;;;;;35.91;27.83;99895.94;5059920;28;20028;-82
2023/07/17 08:31:26;;;;;;;3.28;1.83;;;;;;;35.68;28.23;99907.75;5059002;28;20029;-82
2023/07/17 08:33:52;;;;;;;3.35;1.75;;;;;;;35.96;27.72;99900.91;5061980;28;20025;-82
2023/07/17 08:36:18;;;;;;;4.28;2.50;;;;;;;35.96;27.51;99896.28;5064856;28;20418;-82
2023/07/17 08:38:43;;;;;;;3.35;2.13;;;;;;;36.18;26.61;99883.56;5065821;28;20105;-83
2023/07/17 08:41:09;;;;;;;5.28;2.05;;;;;;;35.75;27.90;99896.06;5066547;28;20033;-82
2023/07/17 08:43:36;;;;;;;4.30;1.70;;;;;;;35.68;28.80;99885.81;5067157;28;20426;-83
2023/07/17 08:46:02;;;;;;;2.28;1.70;;;;;;;35.74;27.29;99867.75;5065844;28;20032;-81
2023/07/17 08:48:29;;;;;;;2.33;1.77;;;;;;;35.76;27.75;99890.44;5063386;28;20024;-83
2023/07/17 08:50:56;;;;;;;2.75;1.48;;;;;;;35.43;28.74;99890.56;5064594;28;20025;-83
2023/07/17 08:53:25;;;;;;;2.03;1.38;;;;;;;35.32;27.86;99872.66;5062361;28;20056;-84
2023/07/17 08:55:56;;;;;;;10.82;1.98;;;;;;;35.28;28.89;99875.94;5063739;28;20032;-85
2023/07/17 08:58:29;;;;;;;10.45;1.67;;;;;;;35.43;30.16;99865.06;5066153;28;20024;-83
2023/07/17 09:00:55;;;;;;;5.05;1.80;;;;;;;36.06;28.42;99893.28;5046502;28;20024;-85
2023/07/17 09:03:23;;;;;;;3.22;1.60;;;;;;;36.19;28.30;99887.16;5066112;28;20506;-84
2023/07/17 09:05:49;;;;;;;1.25;1.15;;;;;;;35.43;30.42;99867.81;5066604;28;20041;-85
2023/07/17 09:08:16;;;;;;;3.78;2.42;;;;;;;35.86;30.00;99887.44;5063986;28;20085;-85
2023/07/17 09:10:42;;;;;;;3.13;1.48;;;;;;;36.02;28.19;99850.75;5063608;28;20067;-84
2023/07/17 09:13:08;;;;;;;8.63;2.00;;;;;;;36.29;28.96;99884.19;5064923;28;20024;-84
2023/07/17 09:15:35;;;;;;;4.22;2.05;;;;;;;36.34;28.18;99851.53;5063539;28;20064;-85
2023/07/17 09:18:03;;;;;;;1.95;1.40;;;;;;;36.27;28.17;99870.66;5062482;28;20040;-80
2023/07/17 09:20:28;;;;;;;3.72;2.13;;;;;;;36.43;28.20;99875.13;5065587;28;20033;-83
2023/07/17 09:22:58;;;;;;;3.42;2.08;;;;;;;36.46;30.70;99879.41;5065652;28;20082;-82
2023/07/17 09:25:28;;;;;;;5.10;2.28;;;;;;;36.89;28.17;99865.88;5062471;28;20040;-83
2023/07/17 09:27:53;;;;;;;5.05;2.88;;;;;;;36.77;27.51;99862.78;5062452;28;20024;-81
2023/07/17 09:30:23;;;;;;;2.35;1.95;;;;;;;36.64;27.13;99844.19;5061480;28;20556;-85
2023/07/17 09:32:50;;;;;;;2.85;1.10;;;;;;;36.60;27.29;99845.59;5050747;28;20028;-85
2023/07/17 09:35:19;;;;;;;2.45;1.70;;;;;;;36.69;27.96;99858.19;5055203;28;20040;-84
2023/07/17 09:37:45;;;;;;;4.57;3.28;;;;;;;36.47;28.16;99846.25;5059779;28;20017;-83
2023/07/17 09:40:12;;;;;;;10.45;3.60;;;;;;;36.99;27.64;99835.38;5055595;28;20120;-85
2023/07/17 09:42:51;;;;;;;5.63;2.30;;;;;;;37.54;26.48;99855.06;5062119;28;20489;-85
2023/07/17 09:45:19;;;;;;;9.05;1.92;;;;;;;37.29;26.93;99833.41;5062382;28;20056;-83
2023/07/17 09:47:47;;;;;;;4.15;2.08;;;;;;;37.44;26.27;99836.97;5045131;28;20389;-83
2023/07/17 09:50:13;;;;;;;2.88;1.77;;;;;;;37.45;26.27;99846.94;5062881;28;20040;-85
2023/07/17 09:52:42;;;;;;;3.13;1.98;;;;;;;37.09;26.31;99834.00;5066191;28;20040;-86
2023/07/17 09:55:08;;;;;;;15.55;2.33;;;;;;;37.08;26.86;99834.22;5062974;28;20444;-85
2023/07/17 09:57:39;;;;;;;5.47;2.05;;;;;;;37.36;26.83;99841.75;5062764;28;20028;-84
2023/07/17 10:00:12;;;;;;;3.45;2.00;;;;;;;37.49;25.92;99833.63;5059398;28;20463;-84
2023/07/17 10:03:09;;;;;;;5.53;2.65;;;;;;;37.42;27.65;99833.56;5061397;28;20064;-85
2023/07/17 10:05:37;;;;;;;3.47;2.13;;;;;;;37.63;28.16;99829.13;5064255;28;20024;-85
2023/07/17 10:08:10;;;;;;;5.13;2.47;;;;;;;37.67;26.01;99797.41;5059962;28;20044;-84
2023/07/17 10:10:37;;;;;;;4.57;1.60;;;;;;;37.19;28.87;99830.94;5059414;28;20059;-84
2023/07/17 10:13:04;;;;;;;3.88;2.10;;;;;;;37.18;28.88;99826.47;5064564;28;20565;-85
2023/07/17 10:15:32;;;;;;;1.90;1.30;;;;;;;37.34;28.04;99810.81;5060022;28;20127;-84
2023/07/17 10:17:58;;;;;;;3.53;2.35;;;;;;;37.47;30.14;99804.63;5058180;28;20040;-84
2023/07/17 10:20:24;;;;;;;6.22;2.58;;;;;;;37.28;26.73;99754.72;5057514;28;20094;-84
2023/07/17 10:22:50;;;;;;;6.03;2.05;;;;;;;37.48;27.79;99817.31;5060711;28;20067;-87
2023/07/17 10:25:18;;;;;;;2.72;1.58;;;;;;;37.72;27.17;99807.88;5062009;28;20048;-84
2023/07/17 10:27:52;;;;;;;3.63;1.98;;;;;;;37.82;26.63;99807.53;5058563;28;20048;-82
2023/07/17 10:30:35;;;;;;;4.05;1.92;;;;;;;37.66;26.82;99784.69;5061286;28;20021;-83
2023/07/17 10:33:11;;;;;;;2.60;1.80;;;;;;;38.10;26.79;99799.31;5059397;28;20044;-84
2023/07/17 10:35:52;;;;;;;1.90;1.17;;;;;;;37.94;26.07;99773.78;5059596;28;20028;-82
2023/07/17 10:38:24;;;;;;;3.92;2.28;;;;;;;38.25;26.42;99769.78;5063948;28;20032;-84
2023/07/17 10:41:20;;;;;;;3.70;2.20;;;;;;;38.45;27.10;99753.38;5059266;28;20040;-83
2023/07/17 10:43:57;;;;;;;7.88;2.92;;;;;;;39.15;25.88;99782.75;5002458;28;20064;-83
2023/07/17 10:46:28;;;;;;;2.90;2.13;;;;;;;38.97;25.01;99767.59;4999186;28;20432;-83
2023/07/17 10:49:14;;;;;;;4.10;2.03;;;;;;;38.83;26.30;99776.88;4999292;28;21186;-81
2023/07/17 10:51:47;;;;;;;5.63;2.40;;;;;;;38.47;26.01;99765.03;4982749;28;20069;-82
2023/07/17 10:54:14;;;;;;;3.30;2.23;;;;;;;37.95;27.42;99731.41;5001274;28;20042;-82
2023/07/17 10:56:43;;;;;;;6.32;2.63;;;;;;;38.16;26.31;99748.94;4983245;28;20060;-82
2023/07/17 10:59:08;;;;;;;3.95;2.15;;;;;;;37.85;28.12;99741.94;4985455;28;20638;-83
2023/07/17 11:01:34;;;;;;;8.30;2.65;;;;;;;38.04;27.37;99754.13;5001123;28;20381;-84
2023/07/17 11:04:00;;;;;;;6.05;2.15;;;;;;;38.38;26.79;99755.22;4997747;28;20509;-83
2023/07/17 11:06:26;;;;;;;5.63;1.90;;;;;;;38.43;27.45;99747.19;5000856;28;20092;-84
2023/07/17 11:08:54;;;;;;;16.02;2.53;;;;;;;38.15;26.60;99744.47;5001322;28;20050;-87
2023/07/17 11:11:19;;;;;;;3.42;2.25;;;;;;;38.38;27.70;99757.16;5002079;28;20037;-86
2023/07/17 11:13:49;;;;;;;11.30;2.53;;;;;;;38.45;27.37;99725.81;5001219;28;20058;-85
2023/07/17 11:16:16;;;;;;;4.07;2.13;;;;;;;38.31;28.82;99744.19;4999859;28;20142;-85
2023/07/17 11:18:48;;;;;;;5.50;2.88;;;;;;;38.22;28.72;99745.41;5001284;28;20065;-85
2023/07/17 11:21:15;;;;;;;4.90;2.15;;;;;;;38.60;27.02;99728.41;5026063;28;20052;-86
2023/07/17 11:23:49;;;;;;;3.13;1.63;;;;;;;38.67;26.98;99740.38;5059775;28;20040;-86
2023/07/17 11:26:23;;;;;;;8.60;2.38;;;;;;;38.29;26.53;99677.41;5057947;28;20047;-84
2023/07/17 11:28:50;;;;;;;;;;;;;;;38.84;26.90;99743.59;5060072;28;20040;-84